createdAt,value
2022-10-11T00:02:09.751Z,6.47
2022-10-11T00:05:11.701Z,6.40
2022-10-11T00:08:13.583Z,6.88
2022-10-11T00:11:15.233Z,6.72
2022-10-11T00:14:16.700Z,6.82
2022-10-11T00:17:18.174Z,6.57
2022-10-11T00:20:20.020Z,6.03
2022-10-11T00:23:21.548Z,6.20
2022-10-11T00:26:23.072Z,7.30
2022-10-11T00:29:24.586Z,6.65
2022-10-11T00:32:26.315Z,6.55
2022-10-11T00:35:27.826Z,6.70
2022-10-11T00:38:31.859Z,6.75
2022-10-11T00:41:33.672Z,6.22
2022-10-11T00:44:35.348Z,6.78
2022-10-11T00:47:36.877Z,6.70
2022-10-11T00:50:38.390Z,6.90
2022-10-11T00:53:41.058Z,6.78
2022-10-11T00:56:45.355Z,6.38
2022-10-11T00:59:50.983Z,6.32
2022-10-11T01:02:52.728Z,6.45
2022-10-11T01:05:55.050Z,6.03
2022-10-11T01:08:56.825Z,6.38
2022-10-11T01:12:01.063Z,6.45
2022-10-11T01:15:17.747Z,5.72
2022-10-11T01:18:35.513Z,6.10
2022-10-11T01:21:52.619Z,5.43
2022-10-11T01:25:24.467Z,5.95
2022-10-11T01:28:59.916Z,6.28
2022-10-11T01:32:24.586Z,6.20
2022-10-11T01:38:42.652Z,6.25
2022-10-11T01:41:49.459Z,5.63
2022-10-11T01:44:52.010Z,5.97
2022-10-11T01:48:08.759Z,6.72
2022-10-11T01:51:10.524Z,6.18
2022-10-11T01:55:08.017Z,6.82
2022-10-11T01:58:37.666Z,7.68
2022-10-11T02:01:49.600Z,6.72
2022-10-11T02:05:11.901Z,6.28
2022-10-11T02:08:31.924Z,5.88
2022-10-11T02:11:36.308Z,5.93
2022-10-11T02:14:44.359Z,7.35
2022-10-11T02:17:52.420Z,6.13
2022-10-11T02:20:57.264Z,6.38
2022-10-11T02:24:08.873Z,6.30
2022-10-11T02:27:12.433Z,6.28
2022-10-11T02:30:15.151Z,6.53
2022-10-11T02:33:21.684Z,6.07
2022-10-11T02:36:31.139Z,6.45
2022-10-11T02:39:37.341Z,5.90
2022-10-11T02:42:44.553Z,6.20
2022-10-11T02:45:57.237Z,6.28
2022-10-11T02:49:00.342Z,6.32
2022-10-11T02:52:04.856Z,6.10
2022-10-11T02:55:07.604Z,6.03
2022-10-11T02:58:09.084Z,5.68
2022-10-11T03:01:10.727Z,6.65
2022-10-11T03:04:12.240Z,6.05
2022-10-11T03:07:14.667Z,6.05
2022-10-11T03:10:16.473Z,7.00
2022-10-11T03:13:18.587Z,6.55
2022-10-11T03:16:20.172Z,7.60
2022-10-11T03:19:21.681Z,6.80
2022-10-11T03:22:23.320Z,6.32
2022-10-11T03:25:24.835Z,6.30
2022-10-11T03:28:26.364Z,7.40
2022-10-11T03:31:27.920Z,7.57
2022-10-11T03:34:32.742Z,6.38
2022-10-11T03:37:34.378Z,7.05
2022-10-11T03:40:35.860Z,7.90
2022-10-11T03:43:37.343Z,7.90
2022-10-11T03:46:38.797Z,7.32
2022-10-11T03:49:43.570Z,7.30
2022-10-11T03:52:45.540Z,7.68
2022-10-11T03:55:51.560Z,7.05
2022-10-11T03:58:53.070Z,6.97
2022-10-11T04:01:54.749Z,6.93
2022-10-11T04:04:56.373Z,6.53
2022-10-11T04:07:57.917Z,6.78
2022-10-11T04:10:59.485Z,6.85
2022-10-11T04:14:01.040Z,5.82
2022-10-11T04:17:02.541Z,6.20
2022-10-11T04:20:04.537Z,6.72
2022-10-11T04:23:06.181Z,6.35
2022-10-11T04:26:09.034Z,5.85
2022-10-11T04:29:10.741Z,6.10
2022-10-11T04:32:12.220Z,5.70
2022-10-11T04:35:13.903Z,5.78
2022-10-11T04:38:15.636Z,7.22
2022-10-11T04:41:17.258Z,6.85
2022-10-11T04:44:18.727Z,6.68
2022-10-11T04:47:20.241Z,5.95
2022-10-11T04:50:21.976Z,7.00
2022-10-11T04:53:23.500Z,6.20
2022-10-11T04:56:24.939Z,6.13
2022-10-11T04:59:26.633Z,6.50
2022-10-11T05:02:28.217Z,6.28
2022-10-11T05:05:34.581Z,6.03
2022-10-11T05:08:36.239Z,6.80
2022-10-11T05:11:37.764Z,7.10
2022-10-11T05:14:39.243Z,6.95
2022-10-11T05:17:40.716Z,7.55
2022-10-11T05:20:42.300Z,7.82
2022-10-11T05:23:44.075Z,6.90
2022-10-11T05:26:45.704Z,7.80
2022-10-11T05:29:47.187Z,6.43
2022-10-11T05:32:48.614Z,6.25
2022-10-11T05:35:50.100Z,6.82
2022-10-11T05:38:54.481Z,7.85
2022-10-11T05:41:56.147Z,6.43
2022-10-11T05:44:57.586Z,6.20
2022-10-11T05:47:59.307Z,5.80
2022-10-11T05:51:05.641Z,7.35
2022-10-11T05:54:07.152Z,6.40
2022-10-11T05:57:08.665Z,6.70
2022-10-11T06:00:10.833Z,6.85
2022-10-11T06:03:18.209Z,7.22
2022-10-11T06:06:20.473Z,7.20
2022-10-11T06:09:22.013Z,7.07
2022-10-11T06:12:23.533Z,7.13
2022-10-11T06:15:25.180Z,6.72
2022-10-11T06:18:26.639Z,6.82
2022-10-11T06:21:28.105Z,6.75
2022-10-11T06:24:29.554Z,6.55
2022-10-11T06:27:31.004Z,8.07
2022-10-11T06:30:32.485Z,7.82
2022-10-11T06:33:35.085Z,7.40
2022-10-11T06:36:36.579Z,7.72
2022-10-11T06:39:38.250Z,7.00
2022-10-11T06:42:39.785Z,6.45
2022-10-11T06:45:41.637Z,8.05
2022-10-11T06:48:44.926Z,6.07
2022-10-11T06:51:46.431Z,6.33
2022-10-11T06:54:47.962Z,7.28
2022-10-11T06:57:49.453Z,7.07
2022-10-11T07:00:50.999Z,6.80
2022-10-11T07:03:54.755Z,6.57
2022-10-11T07:06:56.245Z,8.23
2022-10-11T07:09:57.759Z,7.07
2022-10-11T07:12:59.235Z,6.72
2022-10-11T07:16:02.741Z,7.82
2022-10-11T07:19:06.451Z,7.05
2022-10-11T07:22:08.030Z,6.10
2022-10-11T07:25:09.669Z,7.90
2022-10-11T07:28:11.602Z,7.70
2022-10-11T07:31:18.098Z,7.30
2022-10-11T07:34:20.615Z,7.90
2022-10-11T07:37:22.132Z,7.05
2022-10-11T07:40:23.661Z,7.72
2022-10-11T07:43:25.244Z,6.78
2022-10-11T07:46:26.773Z,6.80
2022-10-11T07:49:28.244Z,7.60
2022-10-11T07:52:29.753Z,8.23
2022-10-11T07:55:34.795Z,7.85
2022-10-11T07:58:36.337Z,6.90
2022-10-11T08:01:37.969Z,8.23
2022-10-11T08:04:40.048Z,6.72
2022-10-11T08:07:41.837Z,7.20
2022-10-11T08:10:43.323Z,6.80
2022-10-11T08:13:44.861Z,6.80
2022-10-11T08:16:46.364Z,7.63
2022-10-11T08:19:47.899Z,7.90
2022-10-11T08:22:49.427Z,8.15
2022-10-11T08:25:56.488Z,8.10
2022-10-11T08:28:59.599Z,7.93
2022-10-11T08:32:01.328Z,7.63
2022-10-11T08:35:02.862Z,7.75
2022-10-11T08:38:04.357Z,7.30
2022-10-11T08:41:34.088Z,7.88
2022-10-11T08:45:09.386Z,7.05
2022-10-11T08:48:21.421Z,7.32
2022-10-11T08:51:29.256Z,8.45
2022-10-11T08:54:57.689Z,8.45
2022-10-11T08:57:59.586Z,8.95
2022-10-11T09:01:02.372Z,9.85
2022-10-11T09:04:06.081Z,9.27
2022-10-11T09:07:21.599Z,10.55
2022-10-11T09:10:54.016Z,10.80
2022-10-11T09:14:10.907Z,11.57
2022-10-11T09:17:27.845Z,11.75
2022-10-11T09:20:38.518Z,11.65
2022-10-11T09:23:48.758Z,11.82
2022-10-11T09:26:57.432Z,13.05
2022-10-11T09:30:16.130Z,12.75
2022-10-11T09:33:45.211Z,14.82
2022-10-11T09:36:54.295Z,15.15
2022-10-11T09:40:06.901Z,17.88
2022-10-11T09:43:39.857Z,20.20
2022-10-11T09:46:42.255Z,22.17
2022-10-11T09:49:52.785Z,21.38
2022-10-11T09:52:57.258Z,21.30
2022-10-11T09:56:04.151Z,22.38
2022-10-11T09:59:18.998Z,19.20
2022-10-11T10:02:23.704Z,18.10
2022-10-11T10:05:27.866Z,16.95
2022-10-11T10:08:29.337Z,17.27
2022-10-11T10:11:36.774Z,16.63
2022-10-11T10:14:39.454Z,14.82
2022-10-11T10:17:49.292Z,16.73
2022-10-11T10:20:53.890Z,16.70
2022-10-11T10:23:57.628Z,17.35
2022-10-11T10:27:11.120Z,20.42
2022-10-11T10:30:19.317Z,19.33
2022-10-11T10:33:23.865Z,19.10
2022-10-11T10:36:46.615Z,20.52
2022-10-11T10:40:13.925Z,18.83
2022-10-11T10:43:18.532Z,19.02
2022-10-11T10:46:57.823Z,18.92
2022-10-11T10:50:18.830Z,18.75
2022-10-11T10:53:29.573Z,19.33
2022-10-11T10:56:40.438Z,18.90
2022-10-11T11:00:20.548Z,19.35
2022-10-11T11:03:31.092Z,21.55
2022-10-11T11:06:44.951Z,21.33
2022-10-11T11:09:53.292Z,21.83
2022-10-11T11:13:29.622Z,21.98
2022-10-11T11:16:31.061Z,23.10
2022-10-11T11:20:03.722Z,25.02
2022-10-11T11:23:30.381Z,26.38
2022-10-11T11:26:50.535Z,27.70
2022-10-11T11:30:08.786Z,29.02
2022-10-11T11:33:10.396Z,29.23
2022-10-11T11:36:18.728Z,28.58
2022-10-11T11:39:49.231Z,26.98
2022-10-11T11:42:53.625Z,29.52
2022-10-11T11:45:59.274Z,29.48
2022-10-11T11:49:12.146Z,29.63
2022-10-11T11:52:26.193Z,31.45
2022-10-11T11:55:33.711Z,29.58
2022-10-11T11:59:10.947Z,30.17
2022-10-11T12:02:35.176Z,31.02
2022-10-11T12:05:37.014Z,29.92
2022-10-11T12:08:40.655Z,31.48
2022-10-11T12:11:48.588Z,31.27
2022-10-11T12:14:51.377Z,30.13
2022-10-11T12:17:59.071Z,28.48
2022-10-11T12:21:06.010Z,29.50
2022-10-11T12:24:22.807Z,31.33
2022-10-11T12:27:36.679Z,29.27
2022-10-11T12:30:44.498Z,28.02
2022-10-11T12:33:45.982Z,27.58
2022-10-11T12:36:50.568Z,27.13
2022-10-11T12:39:57.443Z,28.33
2022-10-11T12:43:14.009Z,26.67
2022-10-11T12:46:33.688Z,25.45
2022-10-11T12:49:47.596Z,26.00
2022-10-11T12:53:10.456Z,25.38
2022-10-11T12:56:26.065Z,24.38
2022-10-11T12:59:27.657Z,26.15
2022-10-11T13:02:39.289Z,24.58
2022-10-11T13:05:49.707Z,24.50
2022-10-11T13:09:03.848Z,22.38
2022-10-11T13:12:07.117Z,22.90
2022-10-11T13:15:16.971Z,23.25
2022-10-11T13:18:21.257Z,23.27
2022-10-11T13:21:32.706Z,24.27
2022-10-11T13:24:39.790Z,22.73
2022-10-11T13:27:41.463Z,22.15
2022-10-11T13:30:46.431Z,22.55
2022-10-11T13:33:48.487Z,20.55
2022-10-11T13:36:55.729Z,18.60
2022-10-11T13:39:57.866Z,18.98
2022-10-11T13:42:59.634Z,19.75
2022-10-11T13:46:04.981Z,17.70
2022-10-11T13:49:26.954Z,19.17
2022-10-11T13:52:28.429Z,17.88
2022-10-11T13:55:33.052Z,16.98
2022-10-11T13:58:44.109Z,18.45
2022-10-11T14:01:46.632Z,17.85
2022-10-11T14:04:48.979Z,17.23
2022-10-11T14:07:50.694Z,16.20
2022-10-11T14:10:56.710Z,16.38
2022-10-11T14:13:58.926Z,17.05
2022-10-11T14:17:12.622Z,16.58
2022-10-11T14:20:22.258Z,17.15
2022-10-11T14:23:23.866Z,16.42
2022-10-11T14:26:32.830Z,17.05
2022-10-11T14:29:35.972Z,16.05
2022-10-11T14:32:37.568Z,17.03
2022-10-11T14:35:43.446Z,15.57
2022-10-11T14:38:47.768Z,16.63
2022-10-11T14:41:50.621Z,15.75
2022-10-11T14:44:52.210Z,14.48
2022-10-11T14:47:53.778Z,14.23
2022-10-11T14:50:59.253Z,15.25
2022-10-11T14:54:00.705Z,14.27
2022-10-11T14:57:03.860Z,16.02
2022-10-11T15:00:22.209Z,15.10
2022-10-11T15:03:23.688Z,13.77
2022-10-11T15:06:32.507Z,14.95
2022-10-11T15:09:34.112Z,14.43
2022-10-11T15:12:35.556Z,16.77
2022-10-11T15:15:40.888Z,15.00
2022-10-11T15:18:43.906Z,15.45
2022-10-11T15:21:46.008Z,15.05
2022-10-11T15:24:51.527Z,14.75
2022-10-11T15:27:53.842Z,13.77
2022-10-11T15:30:55.934Z,13.95
2022-10-11T15:33:59.540Z,14.07
2022-10-11T15:37:01.073Z,13.98
2022-10-11T15:40:02.949Z,15.90
2022-10-11T15:43:04.672Z,15.65
2022-10-11T15:46:06.732Z,16.17
2022-10-11T15:49:13.353Z,16.05
2022-10-11T15:52:14.830Z,13.68
2022-10-11T15:55:17.408Z,12.95
2022-10-11T15:58:25.058Z,12.90
2022-10-11T16:01:27.240Z,13.77
2022-10-11T16:04:28.786Z,13.48
2022-10-11T16:07:30.307Z,14.60
2022-10-11T16:10:31.909Z,14.07
2022-10-11T16:13:34.315Z,13.38
2022-10-11T16:16:35.795Z,12.88
2022-10-11T16:19:37.296Z,13.57
2022-10-11T16:22:39.355Z,12.70
2022-10-11T16:25:42.460Z,13.13
2022-10-11T16:28:44.668Z,13.82
2022-10-11T16:31:46.175Z,13.88
2022-10-11T16:34:47.678Z,13.82
2022-10-11T16:37:50.241Z,12.82
2022-10-11T16:40:51.704Z,12.10
2022-10-11T16:43:56.117Z,12.45
2022-10-11T16:46:57.859Z,12.68
2022-10-11T16:49:59.413Z,12.63
2022-10-11T16:53:00.881Z,12.13
2022-10-11T16:56:09.898Z,11.60
2022-10-11T16:59:12.517Z,12.20
2022-10-11T17:02:17.029Z,12.38
2022-10-11T17:05:18.511Z,14.27
2022-10-11T17:08:20.054Z,13.18
2022-10-11T17:11:22.377Z,13.48
2022-10-11T17:14:23.863Z,11.18
2022-10-11T17:17:25.407Z,11.10
2022-10-11T17:20:26.914Z,11.65
2022-10-11T17:23:28.975Z,11.30
2022-10-11T17:26:30.489Z,13.68
2022-10-11T17:29:32.367Z,14.23
2022-10-11T17:32:33.864Z,12.35
2022-10-11T17:35:35.396Z,11.27
2022-10-11T17:38:36.868Z,12.25
2022-10-11T17:41:38.588Z,11.60
2022-10-11T17:44:41.220Z,11.43
2022-10-11T17:47:42.733Z,11.13
2022-10-11T17:50:49.665Z,11.88
2022-10-11T17:53:52.176Z,12.15
2022-10-11T17:56:54.498Z,12.20
2022-10-11T17:59:58.100Z,11.95
2022-10-11T18:02:59.663Z,12.20
2022-10-11T18:06:09.032Z,12.02
2022-10-11T18:09:11.543Z,12.93
2022-10-11T18:12:12.999Z,13.35
2022-10-11T18:15:14.451Z,14.05
2022-10-11T18:18:18.064Z,13.13
2022-10-11T18:21:19.671Z,13.35
2022-10-11T18:24:21.276Z,13.00
2022-10-11T18:27:22.740Z,15.70
2022-10-11T18:30:24.447Z,17.25
2022-10-11T18:33:27.179Z,16.67
2022-10-11T18:36:30.309Z,18.58
2022-10-11T18:39:34.953Z,17.90
2022-10-11T18:42:36.681Z,17.17
2022-10-11T18:45:38.236Z,18.38
2022-10-11T18:48:41.707Z,18.50
2022-10-11T18:51:45.156Z,18.70
2022-10-11T18:54:46.676Z,17.83
2022-10-11T18:57:48.265Z,19.27
2022-10-11T19:00:49.982Z,19.00
2022-10-11T19:03:54.321Z,18.40
2022-10-11T19:06:55.885Z,18.48
2022-10-11T19:09:57.448Z,19.05
2022-10-11T19:12:59.461Z,15.27
2022-10-11T19:16:09.816Z,14.10
2022-10-11T19:19:12.474Z,14.25
2022-10-11T19:22:13.985Z,15.77
2022-10-11T19:25:15.537Z,18.13
2022-10-11T19:28:17.103Z,17.92
2022-10-11T19:31:18.568Z,18.50
2022-10-11T19:34:21.296Z,19.15
2022-10-11T19:37:22.905Z,19.63
2022-10-11T19:40:24.950Z,19.25
2022-10-11T19:43:26.889Z,15.30
2022-10-11T19:49:50.418Z,15.95
2022-10-11T19:52:51.914Z,15.68
2022-10-11T19:55:55.489Z,16.10
2022-10-11T19:58:57.564Z,17.38
2022-10-11T20:01:59.071Z,17.08
2022-10-11T20:05:00.634Z,17.38
2022-10-11T20:08:02.114Z,14.05
2022-10-11T20:11:08.712Z,14.35
2022-10-11T20:14:10.261Z,15.90
2022-10-11T20:17:12.122Z,15.43
2022-10-11T20:20:14.900Z,16.70
2022-10-11T20:23:18.255Z,14.32
2022-10-11T20:26:22.805Z,14.30
2022-10-11T20:29:25.353Z,14.02
2022-10-11T20:32:27.875Z,14.95
2022-10-11T20:35:29.349Z,15.80
2022-10-11T20:38:32.253Z,17.85
2022-10-11T20:41:40.031Z,15.57
2022-10-11T20:44:43.578Z,15.50
2022-10-11T20:47:45.104Z,18.33
2022-10-11T20:50:46.608Z,17.80
2022-10-11T20:53:49.115Z,16.88
2022-10-11T20:56:50.639Z,15.60
2022-10-11T20:59:52.108Z,15.52
2022-10-11T21:02:54.161Z,15.45
2022-10-11T21:05:59.811Z,15.95
2022-10-11T21:09:01.803Z,15.68
2022-10-11T21:12:03.682Z,15.38
2022-10-11T21:15:05.674Z,15.23
2022-10-11T21:18:07.821Z,15.93
2022-10-11T21:21:12.438Z,16.77
2022-10-11T21:24:14.069Z,15.40
2022-10-11T21:27:15.524Z,16.58
2022-10-11T21:30:17.101Z,16.15
2022-10-11T21:33:18.604Z,15.50
2022-10-11T21:36:22.081Z,16.55
2022-10-11T21:39:23.615Z,15.60
2022-10-11T21:42:29.405Z,15.10
2022-10-11T21:45:31.246Z,15.75
2022-10-11T21:48:33.237Z,16.05
2022-10-11T21:51:34.759Z,16.42
2022-10-11T21:54:36.314Z,15.38
2022-10-11T21:57:37.796Z,15.35
2022-10-11T22:00:39.505Z,14.68
2022-10-11T22:03:41.032Z,15.02
2022-10-11T22:06:42.500Z,15.13
2022-10-11T22:09:44.025Z,15.80
2022-10-11T22:12:45.547Z,16.13
2022-10-11T22:15:47.173Z,16.45
2022-10-11T22:18:48.937Z,16.75
2022-10-11T22:21:50.659Z,17.33
2022-10-11T22:24:52.208Z,18.77
2022-10-11T22:27:53.676Z,17.73
2022-10-11T22:30:55.109Z,17.30
2022-10-11T22:33:58.463Z,19.60
2022-10-11T22:36:59.912Z,18.90
2022-10-11T22:40:01.780Z,18.58
2022-10-11T22:43:03.275Z,18.20
2022-10-11T22:46:05.386Z,19.45
2022-10-11T22:49:06.968Z,20.45
2022-10-11T22:52:08.507Z,21.38
2022-10-11T22:55:10.137Z,21.92
2022-10-11T22:58:11.641Z,20.92
2022-10-11T23:01:16.046Z,21.60
2022-10-11T23:04:17.663Z,22.00
2022-10-11T23:07:19.157Z,21.20
2022-10-11T23:10:20.710Z,20.30
2022-10-11T23:13:22.321Z,21.63
2022-10-11T23:16:23.758Z,21.08
2022-10-11T23:19:25.236Z,22.15
2022-10-11T23:22:26.748Z,22.00
2022-10-11T23:25:28.175Z,22.92
2022-10-11T23:28:29.976Z,23.30
2022-10-11T23:31:31.444Z,22.50
2022-10-11T23:34:33.261Z,21.88
2022-10-11T23:37:35.180Z,21.67
2022-10-11T23:40:36.914Z,23.10
2022-10-11T23:43:38.413Z,23.17
2022-10-11T23:46:39.892Z,25.27
2022-10-11T23:49:41.415Z,27.88
2022-10-11T23:52:42.860Z,24.83
2022-10-11T23:55:44.443Z,25.55
2022-10-11T23:58:46.054Z,23.95
